sensor_id;sensor_type;location;lat;lon;timestamp;temperature;humidity
33109;HTU21D;19481;51.118;6.940;2023-04-01T00:01:46;10.63;68.65
33109;HTU21D;19481;51.118;6.940;2023-04-01T00:06:49;10.71;67.68
33109;HTU21D;19481;51.118;6.940;2023-04-01T00:11:51;10.71;68.46
33109;HTU21D;19481;51.118;6.940;2023-04-01T00:16:53;10.73;67.59
33109;HTU21D;19481;51.118;6.940;2023-04-01T00:21:56;10.75;67.82
33109;HTU21D;19481;51.118;6.940;2023-04-01T00:26:57;10.79;67.49
33109;HTU21D;19481;51.118;6.940;2023-04-01T00:31:59;10.79;67.55
33109;HTU21D;19481;51.118;6.940;2023-04-01T00:37:02;10.78;67.78
33109;HTU21D;19481;51.118;6.940;2023-04-01T00:42:04;10.74;67.61
33109;HTU21D;19481;51.118;6.940;2023-04-01T00:47:06;10.72;67.83
33109;HTU21D;19481;51.118;6.940;2023-04-01T00:52:12;10.72;67.75
33109;HTU21D;19481;51.118;6.940;2023-04-01T00:57:19;10.69;68.52
33109;HTU21D;19481;51.118;6.940;2023-04-01T01:02:21;10.74;67.78
33109;HTU21D;19481;51.118;6.940;2023-04-01T01:07:28;10.75;67.62
33109;HTU21D;19481;51.118;6.940;2023-04-01T01:12:34;10.79;68.23
33109;HTU21D;19481;51.118;6.940;2023-04-01T01:17:46;10.74;68.34
33109;HTU21D;19481;51.118;6.940;2023-04-01T01:23:02;10.70;69.11
33109;HTU21D;19481;51.118;6.940;2023-04-01T01:28:25;10.66;69.02
33109;HTU21D;19481;51.118;6.940;2023-04-01T01:33:45;10.65;69.07
33109;HTU21D;19481;51.118;6.940;2023-04-01T01:38:51;10.60;70.33
33109;HTU21D;19481;51.118;6.940;2023-04-01T01:43:55;10.57;68.21
33109;HTU21D;19481;51.118;6.940;2023-04-01T01:49:00;10.57;68.58
33109;HTU21D;19481;51.118;6.940;2023-04-01T01:54:03;10.54;70.42
33109;HTU21D;19481;51.118;6.940;2023-04-01T01:59:08;10.51;69.11
33109;HTU21D;19481;51.118;6.940;2023-04-01T02:04:14;10.36;70.29
33109;HTU21D;19481;51.118;6.940;2023-04-01T02:09:17;10.24;70.11
33109;HTU21D;19481;51.118;6.940;2023-04-01T02:14:22;10.14;71.26
33109;HTU21D;19481;51.118;6.940;2023-04-01T02:19:29;10.10;70.81
33109;HTU21D;19481;51.118;6.940;2023-04-01T02:24:35;10.08;70.79
33109;HTU21D;19481;51.118;6.940;2023-04-01T02:29:39;10.07;70.56
33109;HTU21D;19481;51.118;6.940;2023-04-01T02:34:41;10.04;70.60
33109;HTU21D;19481;51.118;6.940;2023-04-01T02:39:45;10.00;71.80
33109;HTU21D;19481;51.118;6.940;2023-04-01T02:44:47;9.92;71.48
33109;HTU21D;19481;51.118;6.940;2023-04-01T02:49:48;9.89;71.03
33109;HTU21D;19481;51.118;6.940;2023-04-01T02:54:51;9.88;71.04
33109;HTU21D;19481;51.118;6.940;2023-04-01T02:59:53;9.85;72.51
33109;HTU21D;19481;51.118;6.940;2023-04-01T03:04:55;9.85;71.99
33109;HTU21D;19481;51.118;6.940;2023-04-01T03:09:58;9.81;71.29
33109;HTU21D;19481;51.118;6.940;2023-04-01T03:14:59;9.84;70.98
33109;HTU21D;19481;51.118;6.940;2023-04-01T03:20:01;9.88;71.00
33109;HTU21D;19481;51.118;6.940;2023-04-01T03:25:07;9.88;71.52
33109;HTU21D;19481;51.118;6.940;2023-04-01T03:30:09;9.90;71.03
33109;HTU21D;19481;51.118;6.940;2023-04-01T03:35:11;9.95;71.87
33109;HTU21D;19481;51.118;6.940;2023-04-01T03:40:14;9.99;71.19
33109;HTU21D;19481;51.118;6.940;2023-04-01T03:45:16;9.99;71.26
33109;HTU21D;19481;51.118;6.940;2023-04-01T03:50:17;10.03;71.42
33109;HTU21D;19481;51.118;6.940;2023-04-01T03:55:21;10.06;71.30
33109;HTU21D;19481;51.118;6.940;2023-04-01T04:00:22;10.06;71.35
33109;HTU21D;19481;51.118;6.940;2023-04-01T04:05:26;10.06;71.42
33109;HTU21D;19481;51.118;6.940;2023-04-01T04:10:29;9.99;72.01
33109;HTU21D;19481;51.118;6.940;2023-04-01T04:15:31;9.93;72.31
33109;HTU21D;19481;51.118;6.940;2023-04-01T04:20:32;9.90;72.38
33109;HTU21D;19481;51.118;6.940;2023-04-01T04:25:35;9.92;72.62
33109;HTU21D;19481;51.118;6.940;2023-04-01T04:30:37;9.83;72.87
33109;HTU21D;19481;51.118;6.940;2023-04-01T04:35:38;9.83;72.99
33109;HTU21D;19481;51.118;6.940;2023-04-01T04:40:42;9.83;72.91
33109;HTU21D;19481;51.118;6.940;2023-04-01T04:45:44;9.80;73.25
33109;HTU21D;19481;51.118;6.940;2023-04-01T04:50:47;9.82;73.73
33109;HTU21D;19481;51.118;6.940;2023-04-01T04:55:51;9.84;73.19
33109;HTU21D;19481;51.118;6.940;2023-04-01T05:00:52;9.83;73.38
33109;HTU21D;19481;51.118;6.940;2023-04-01T05:05:54;9.84;73.81
33109;HTU21D;19481;51.118;6.940;2023-04-01T05:10:57;9.82;73.44
33109;HTU21D;19481;51.118;6.940;2023-04-01T05:15:59;9.82;74.02
33109;HTU21D;19481;51.118;6.940;2023-04-01T05:21:00;9.85;73.77
33109;HTU21D;19481;51.118;6.940;2023-04-01T05:26:04;9.83;73.86
33109;HTU21D;19481;51.118;6.940;2023-04-01T05:31:07;9.85;74.02
33109;HTU21D;19481;51.118;6.940;2023-04-01T05:36:10;9.92;74.41
33109;HTU21D;19481;51.118;6.940;2023-04-01T05:41:14;9.93;73.95
33109;HTU21D;19481;51.118;6.940;2023-04-01T05:46:16;9.96;73.86
33109;HTU21D;19481;51.118;6.940;2023-04-01T05:51:17;9.97;73.77
33109;HTU21D;19481;51.118;6.940;2023-04-01T05:56:20;9.99;73.77
33109;HTU21D;19481;51.118;6.940;2023-04-01T06:01:22;10.01;76.15
33109;HTU21D;19481;51.118;6.940;2023-04-01T06:06:25;9.97;74.31
33109;HTU21D;19481;51.118;6.940;2023-04-01T06:11:36;10.01;74.85
33109;HTU21D;19481;51.118;6.940;2023-04-01T06:16:52;9.98;75.25
33109;HTU21D;19481;51.118;6.940;2023-04-01T06:22:17;9.98;74.58
33109;HTU21D;19481;51.118;6.940;2023-04-01T06:27:29;10.08;73.80
33109;HTU21D;19481;51.118;6.940;2023-04-01T06:32:45;10.08;73.41
33109;HTU21D;19481;51.118;6.940;2023-04-01T06:38:10;10.14;73.52
33109;HTU21D;19481;51.118;6.940;2023-04-01T06:43:22;10.16;74.16
33109;HTU21D;19481;51.118;6.940;2023-04-01T06:48:40;10.23;74.04
33109;HTU21D;19481;51.118;6.940;2023-04-01T06:53:50;10.25;73.24
33109;HTU21D;19481;51.118;6.940;2023-04-01T06:58:59;10.24;73.19
33109;HTU21D;19481;51.118;6.940;2023-04-01T07:04:06;10.30;72.90
33109;HTU21D;19481;51.118;6.940;2023-04-01T07:09:11;10.30;73.17
33109;HTU21D;19481;51.118;6.940;2023-04-01T07:14:20;10.27;73.62
33109;HTU21D;19481;51.118;6.940;2023-04-01T07:19:27;10.25;74.82
33109;HTU21D;19481;51.118;6.940;2023-04-01T07:24:33;10.21;74.73
33109;HTU21D;19481;51.118;6.940;2023-04-01T07:29:36;10.23;74.12
33109;HTU21D;19481;51.118;6.940;2023-04-01T07:34:46;10.24;74.23
33109;HTU21D;19481;51.118;6.940;2023-04-01T07:39:55;10.34;74.09
33109;HTU21D;19481;51.118;6.940;2023-04-01T07:45:08;10.34;74.57
33109;HTU21D;19481;51.118;6.940;2023-04-01T07:50:21;10.37;74.35
33109;HTU21D;19481;51.118;6.940;2023-04-01T07:55:27;10.38;74.46
33109;HTU21D;19481;51.118;6.940;2023-04-01T08:00:41;10.40;73.98
33109;HTU21D;19481;51.118;6.940;2023-04-01T08:05:52;10.39;73.58
33109;HTU21D;19481;51.118;6.940;2023-04-01T08:10:59;10.44;73.36
33109;HTU21D;19481;51.118;6.940;2023-04-01T08:16:09;10.38;73.88
33109;HTU21D;19481;51.118;6.940;2023-04-01T08:21:15;10.38;73.83
33109;HTU21D;19481;51.118;6.940;2023-04-01T08:26:25;10.37;73.99
33109;HTU21D;19481;51.118;6.940;2023-04-01T08:31:35;10.40;74.09
33109;HTU21D;19481;51.118;6.940;2023-04-01T08:36:41;10.39;74.28
33109;HTU21D;19481;51.118;6.940;2023-04-01T08:42:09;10.43;75.45
33109;HTU21D;19481;51.118;6.940;2023-04-01T08:47:30;10.49;73.95
33109;HTU21D;19481;51.118;6.940;2023-04-01T08:52:43;10.54;73.97
33109;HTU21D;19481;51.118;6.940;2023-04-01T08:57:56;10.55;75.39
33109;HTU21D;19481;51.118;6.940;2023-04-01T09:03:27;10.54;74.55
33109;HTU21D;19481;51.118;6.940;2023-04-01T09:08:45;10.68;73.41
33109;HTU21D;19481;51.118;6.940;2023-04-01T09:14:09;10.65;74.61
33109;HTU21D;19481;51.118;6.940;2023-04-01T09:19:21;10.73;73.70
33109;HTU21D;19481;51.118;6.940;2023-04-01T09:24:35;10.74;74.51
33109;HTU21D;19481;51.118;6.940;2023-04-01T09:30:09;10.82;75.05
33109;HTU21D;19481;51.118;6.940;2023-04-01T09:35:24;10.80;73.75
33109;HTU21D;19481;51.118;6.940;2023-04-01T09:40:35;10.67;74.16
33109;HTU21D;19481;51.118;6.940;2023-04-01T09:45:46;10.65;73.90
33109;HTU21D;19481;51.118;6.940;2023-04-01T09:50:57;10.66;75.17
33109;HTU21D;19481;51.118;6.940;2023-04-01T10:13:15;10.55;75.88
33109;HTU21D;19481;51.118;6.940;2023-04-01T10:18:55;10.65;75.34
33109;HTU21D;19481;51.118;6.940;2023-04-01T10:29:58;10.90;74.50
33109;HTU21D;19481;51.118;6.940;2023-04-01T10:35:23;11.14;73.57
33109;HTU21D;19481;51.118;6.940;2023-04-01T10:40:50;11.05;73.35
33109;HTU21D;19481;51.118;6.940;2023-04-01T10:51:58;11.09;74.65
33109;HTU21D;19481;51.118;6.940;2023-04-01T10:57:18;11.03;73.76
33109;HTU21D;19481;51.118;6.940;2023-04-01T11:03:06;11.04;75.42
33109;HTU21D;19481;51.118;6.940;2023-04-01T11:14:02;11.10;73.83
33109;HTU21D;19481;51.118;6.940;2023-04-01T11:19:32;11.16;74.92
33109;HTU21D;19481;51.118;6.940;2023-04-01T11:30:29;11.22;74.09
33109;HTU21D;19481;51.118;6.940;2023-04-01T11:35:46;11.22;73.64
33109;HTU21D;19481;51.118;6.940;2023-04-01T11:40:54;11.30;73.17
33109;HTU21D;19481;51.118;6.940;2023-04-01T11:46:05;11.32;73.73
33109;HTU21D;19481;51.118;6.940;2023-04-01T11:51:28;11.32;73.38
33109;HTU21D;19481;51.118;6.940;2023-04-01T11:56:55;11.28;74.56
33109;HTU21D;19481;51.118;6.940;2023-04-01T12:02:05;11.25;73.15
33109;HTU21D;19481;51.118;6.940;2023-04-01T12:07:19;11.29;73.45
33109;HTU21D;19481;51.118;6.940;2023-04-01T12:12:27;11.28;73.13
33109;HTU21D;19481;51.118;6.940;2023-04-01T12:17:37;11.34;72.68
33109;HTU21D;19481;51.118;6.940;2023-04-01T12:22:49;11.37;72.80
33109;HTU21D;19481;51.118;6.940;2023-04-01T12:28:06;11.39;72.57
33109;HTU21D;19481;51.118;6.940;2023-04-01T12:33:27;11.42;73.13
33109;HTU21D;19481;51.118;6.940;2023-04-01T12:38:41;11.37;72.97
33109;HTU21D;19481;51.118;6.940;2023-04-01T12:49:33;11.34;73.36
33109;HTU21D;19481;51.118;6.940;2023-04-01T12:55:06;11.26;73.58
33109;HTU21D;19481;51.118;6.940;2023-04-01T13:00:20;11.15;73.38
33109;HTU21D;19481;51.118;6.940;2023-04-01T13:05:39;11.20;73.28
33109;HTU21D;19481;51.118;6.940;2023-04-01T13:16:18;11.17;74.44
33109;HTU21D;19481;51.118;6.940;2023-04-01T13:21:30;11.25;73.33
33109;HTU21D;19481;51.118;6.940;2023-04-01T13:26:37;11.38;72.91
33109;HTU21D;19481;51.118;6.940;2023-04-01T13:31:53;11.42;75.82
33109;HTU21D;19481;51.118;6.940;2023-04-01T13:37:05;11.47;72.79
33109;HTU21D;19481;51.118;6.940;2023-04-01T13:42:19;11.42;73.10
33109;HTU21D;19481;51.118;6.940;2023-04-01T13:47:56;11.53;73.86
33109;HTU21D;19481;51.118;6.940;2023-04-01T13:53:23;11.51;73.01
33109;HTU21D;19481;51.118;6.940;2023-04-01T13:58:42;11.55;73.12
33109;HTU21D;19481;51.118;6.940;2023-04-01T14:04:16;11.76;72.71
33109;HTU21D;19481;51.118;6.940;2023-04-01T14:09:42;11.69;73.67
33109;HTU21D;19481;51.118;6.940;2023-04-01T14:14:57;11.68;73.01
33109;HTU21D;19481;51.118;6.940;2023-04-01T14:20:17;11.58;72.93
33109;HTU21D;19481;51.118;6.940;2023-04-01T14:25:35;11.66;72.66
33109;HTU21D;19481;51.118;6.940;2023-04-01T14:36:41;11.64;72.94
33109;HTU21D;19481;51.118;6.940;2023-04-01T14:41:48;11.74;72.51
33109;HTU21D;19481;51.118;6.940;2023-04-01T14:52:28;11.48;73.36
33109;HTU21D;19481;51.118;6.940;2023-04-01T14:57:34;11.41;73.54
33109;HTU21D;19481;51.118;6.940;2023-04-01T15:02:51;11.41;73.67
33109;HTU21D;19481;51.118;6.940;2023-04-01T15:08:10;11.47;73.51
33109;HTU21D;19481;51.118;6.940;2023-04-01T15:13:15;11.52;73.53
33109;HTU21D;19481;51.118;6.940;2023-04-01T15:18:21;11.58;73.15
33109;HTU21D;19481;51.118;6.940;2023-04-01T15:24:00;11.76;72.99
33109;HTU21D;19481;51.118;6.940;2023-04-01T15:29:22;11.83;72.43
33109;HTU21D;19481;51.118;6.940;2023-04-01T15:34:32;11.81;73.06
33109;HTU21D;19481;51.118;6.940;2023-04-01T15:39:46;11.92;72.19
33109;HTU21D;19481;51.118;6.940;2023-04-01T15:45:01;11.75;72.86
33109;HTU21D;19481;51.118;6.940;2023-04-01T15:50:28;11.63;73.94
33109;HTU21D;19481;51.118;6.940;2023-04-01T15:55:41;11.53;73.35
33109;HTU21D;19481;51.118;6.940;2023-04-01T16:00:49;11.38;73.93
33109;HTU21D;19481;51.118;6.940;2023-04-01T16:06:18;11.29;75.16
33109;HTU21D;19481;51.118;6.940;2023-04-01T16:11:29;11.30;74.68
33109;HTU21D;19481;51.118;6.940;2023-04-01T16:16:54;11.14;74.61
33109;HTU21D;19481;51.118;6.940;2023-04-01T16:22:04;11.16;73.98
33109;HTU21D;19481;51.118;6.940;2023-04-01T16:27:13;11.10;74.03
33109;HTU21D;19481;51.118;6.940;2023-04-01T16:32:23;11.03;74.82
33109;HTU21D;19481;51.118;6.940;2023-04-01T16:37:33;11.05;74.20
33109;HTU21D;19481;51.118;6.940;2023-04-01T16:42:40;10.88;74.67
33109;HTU21D;19481;51.118;6.940;2023-04-01T16:47:48;10.84;74.37
33109;HTU21D;19481;51.118;6.940;2023-04-01T16:52:58;10.85;74.27
33109;HTU21D;19481;51.118;6.940;2023-04-01T16:58:02;10.81;74.56
33109;HTU21D;19481;51.118;6.940;2023-04-01T17:03:11;10.78;74.70
33109;HTU21D;19481;51.118;6.940;2023-04-01T17:14:28;10.70;75.44
33109;HTU21D;19481;51.118;6.940;2023-04-01T17:19:40;10.66;74.76
33109;HTU21D;19481;51.118;6.940;2023-04-01T17:24:53;10.68;75.10
33109;HTU21D;19481;51.118;6.940;2023-04-01T17:30:16;10.62;75.93
33109;HTU21D;19481;51.118;6.940;2023-04-01T17:35:22;10.59;75.22
33109;HTU21D;19481;51.118;6.940;2023-04-01T17:40:38;10.58;75.22
33109;HTU21D;19481;51.118;6.940;2023-04-01T17:45:47;10.57;74.94
33109;HTU21D;19481;51.118;6.940;2023-04-01T17:51:04;10.54;75.12
33109;HTU21D;19481;51.118;6.940;2023-04-01T17:56:16;10.48;75.85
33109;HTU21D;19481;51.118;6.940;2023-04-01T18:01:29;10.43;76.06
33109;HTU21D;19481;51.118;6.940;2023-04-01T18:06:35;10.43;75.41
33109;HTU21D;19481;51.118;6.940;2023-04-01T18:11:45;10.45;75.08
33109;HTU21D;19481;51.118;6.940;2023-04-01T18:17:01;10.45;75.20
33109;HTU21D;19481;51.118;6.940;2023-04-01T18:22:15;10.40;75.43
33109;HTU21D;19481;51.118;6.940;2023-04-01T18:27:22;10.36;76.06
33109;HTU21D;19481;51.118;6.940;2023-04-01T18:32:32;10.36;75.44
33109;HTU21D;19481;51.118;6.940;2023-04-01T18:37:40;10.26;75.59
33109;HTU21D;19481;51.118;6.940;2023-04-01T18:42:53;10.20;75.98
33109;HTU21D;19481;51.118;6.940;2023-04-01T18:48:11;10.18;76.02
33109;HTU21D;19481;51.118;6.940;2023-04-01T18:53:22;10.08;76.02
33109;HTU21D;19481;51.118;6.940;2023-04-01T18:58:32;10.06;75.97
33109;HTU21D;19481;51.118;6.940;2023-04-01T19:03:40;10.04;75.86
33109;HTU21D;19481;51.118;6.940;2023-04-01T19:08:44;10.05;76.03
33109;HTU21D;19481;51.118;6.940;2023-04-01T19:13:52;10.06;75.90
33109;HTU21D;19481;51.118;6.940;2023-04-01T19:19:05;10.05;75.73
33109;HTU21D;19481;51.118;6.940;2023-04-01T19:24:42;10.10;75.70
33109;HTU21D;19481;51.118;6.940;2023-04-01T19:29:56;10.06;75.78
33109;HTU21D;19481;51.118;6.940;2023-04-01T19:35:13;10.08;75.79
33109;HTU21D;19481;51.118;6.940;2023-04-01T19:45:48;9.95;76.61
33109;HTU21D;19481;51.118;6.940;2023-04-01T19:50:58;9.93;76.31
33109;HTU21D;19481;51.118;6.940;2023-04-01T19:56:05;9.96;76.37
33109;HTU21D;19481;51.118;6.940;2023-04-01T20:01:11;9.94;76.41
33109;HTU21D;19481;51.118;6.940;2023-04-01T20:06:23;9.97;76.08
33109;HTU21D;19481;51.118;6.940;2023-04-01T20:11:35;9.94;76.17
33109;HTU21D;19481;51.118;6.940;2023-04-01T20:16:50;9.92;76.95
33109;HTU21D;19481;51.118;6.940;2023-04-01T20:21:58;9.86;76.89
33109;HTU21D;19481;51.118;6.940;2023-04-01T20:27:04;9.86;76.78
33109;HTU21D;19481;51.118;6.940;2023-04-01T20:32:18;9.92;76.28
33109;HTU21D;19481;51.118;6.940;2023-04-01T20:37:39;9.90;76.23
33109;HTU21D;19481;51.118;6.940;2023-04-01T20:42:59;9.93;76.14
33109;HTU21D;19481;51.118;6.940;2023-04-01T20:48:30;9.95;76.44
33109;HTU21D;19481;51.118;6.940;2023-04-01T20:53:36;9.93;76.29
33109;HTU21D;19481;51.118;6.940;2023-04-01T20:58:51;9.98;75.99
33109;HTU21D;19481;51.118;6.940;2023-04-01T21:04:04;9.99;76.12
33109;HTU21D;19481;51.118;6.940;2023-04-01T21:09:24;9.97;76.33
33109;HTU21D;19481;51.118;6.940;2023-04-01T21:14:42;9.92;76.41
33109;HTU21D;19481;51.118;6.940;2023-04-01T21:20:03;9.90;76.52
33109;HTU21D;19481;51.118;6.940;2023-04-01T21:25:22;9.98;76.24
33109;HTU21D;19481;51.118;6.940;2023-04-01T21:30:48;10.03;76.22
33109;HTU21D;19481;51.118;6.940;2023-04-01T21:35:59;10.01;76.12
33109;HTU21D;19481;51.118;6.940;2023-04-01T21:41:28;10.05;76.00
33109;HTU21D;19481;51.118;6.940;2023-04-01T21:47:17;9.99;76.41
33109;HTU21D;19481;51.118;6.940;2023-04-01T21:52:38;10.08;76.10
33109;HTU21D;19481;51.118;6.940;2023-04-01T21:58:22;10.07;76.31
33109;HTU21D;19481;51.118;6.940;2023-04-01T22:04:02;10.10;76.09
33109;HTU21D;19481;51.118;6.940;2023-04-01T22:09:11;10.10;76.16
33109;HTU21D;19481;51.118;6.940;2023-04-01T22:14:21;10.11;76.38
33109;HTU21D;19481;51.118;6.940;2023-04-01T22:19:29;10.05;76.98
33109;HTU21D;19481;51.118;6.940;2023-04-01T22:24:43;10.03;76.83
33109;HTU21D;19481;51.118;6.940;2023-04-01T22:30:01;10.04;76.89
33109;HTU21D;19481;51.118;6.940;2023-04-01T22:35:10;10.00;77.09
33109;HTU21D;19481;51.118;6.940;2023-04-01T22:40:22;9.93;77.64
33109;HTU21D;19481;51.118;6.940;2023-04-01T22:45:50;9.91;78.00
33109;HTU21D;19481;51.118;6.940;2023-04-01T22:51:01;9.89;77.56
33109;HTU21D;19481;51.118;6.940;2023-04-01T22:56:12;9.85;77.55
33109;HTU21D;19481;51.118;6.940;2023-04-01T23:01:22;9.78;77.53
33109;HTU21D;19481;51.118;6.940;2023-04-01T23:06:28;9.79;77.41
33109;HTU21D;19481;51.118;6.940;2023-04-01T23:11:34;9.79;77.43
33109;HTU21D;19481;51.118;6.940;2023-04-01T23:16:42;9.82;76.81
33109;HTU21D;19481;51.118;6.940;2023-04-01T23:21:49;9.84;76.77
33109;HTU21D;19481;51.118;6.940;2023-04-01T23:26:55;9.88;76.57
33109;HTU21D;19481;51.118;6.940;2023-04-01T23:31:58;9.85;77.15
33109;HTU21D;19481;51.118;6.940;2023-04-01T23:37:03;9.79;76.92
33109;HTU21D;19481;51.118;6.940;2023-04-01T23:42:11;9.65;77.06
33109;HTU21D;19481;51.118;6.940;2023-04-01T23:47:18;9.54;77.11
33109;HTU21D;19481;51.118;6.940;2023-04-01T23:52:23;9.45;76.93
33109;HTU21D;19481;51.118;6.940;2023-04-01T23:57:29;9.32;76.71
